sensor_id;sensor_type;location;lat;lon;timestamp;temperature;humidity
25112;DHT22;13092;51.996;4.458;2023-03-01T00:01:42;2.90;99.90
25112;DHT22;13092;51.996;4.458;2023-03-01T00:04:11;2.60;99.90
25112;DHT22;13092;51.996;4.458;2023-03-01T00:06:40;2.80;99.90
25112;DHT22;13092;51.996;4.458;2023-03-01T00:09:13;2.70;99.90
25112;DHT22;13092;51.996;4.458;2023-03-01T00:11:42;2.90;99.90
25112;DHT22;13092;51.996;4.458;2023-03-01T00:14:11;2.70;99.90
25112;DHT22;13092;51.996;4.458;2023-03-01T00:16:43;2.70;99.90
25112;DHT22;13092;51.996;4.458;2023-03-01T00:19:14;2.70;99.90
25112;DHT22;13092;51.996;4.458;2023-03-01T00:21:43;2.60;99.90
25112;DHT22;13092;51.996;4.458;2023-03-01T00:24:12;2.70;99.90
25112;DHT22;13092;51.996;4.458;2023-03-01T00:26:40;2.70;99.90
25112;DHT22;13092;51.996;4.458;2023-03-01T00:29:09;2.60;99.90
25112;DHT22;13092;51.996;4.458;2023-03-01T00:31:38;2.50;99.90
25112;DHT22;13092;51.996;4.458;2023-03-01T00:34:08;2.50;99.90
25112;DHT22;13092;51.996;4.458;2023-03-01T00:36:37;2.40;99.90
25112;DHT22;13092;51.996;4.458;2023-03-01T00:39:09;2.40;99.90
25112;DHT22;13092;51.996;4.458;2023-03-01T00:41:38;2.40;99.90
25112;DHT22;13092;51.996;4.458;2023-03-01T00:44:07;2.30;99.90
25112;DHT22;13092;51.996;4.458;2023-03-01T00:46:35;2.30;99.90
25112;DHT22;13092;51.996;4.458;2023-03-01T00:49:03;2.30;99.90
25112;DHT22;13092;51.996;4.458;2023-03-01T00:51:33;2.30;99.90
25112;DHT22;13092;51.996;4.458;2023-03-01T00:54:02;2.30;99.90
25112;DHT22;13092;51.996;4.458;2023-03-01T00:56:31;2.30;99.90
25112;DHT22;13092;51.996;4.458;2023-03-01T00:58:59;2.40;99.90
25112;DHT22;13092;51.996;4.458;2023-03-01T01:01:30;2.30;99.90
25112;DHT22;13092;51.996;4.458;2023-03-01T01:04:00;2.30;99.90
25112;DHT22;13092;51.996;4.458;2023-03-01T01:06:31;2.30;99.90
25112;DHT22;13092;51.996;4.458;2023-03-01T01:09:02;2.30;99.90
25112;DHT22;13092;51.996;4.458;2023-03-01T01:11:31;2.30;99.90
25112;DHT22;13092;51.996;4.458;2023-03-01T01:13:59;2.30;99.90
25112;DHT22;13092;51.996;4.458;2023-03-01T01:16:28;2.20;99.90
25112;DHT22;13092;51.996;4.458;2023-03-01T01:18:57;2.10;99.90
25112;DHT22;13092;51.996;4.458;2023-03-01T01:21:26;2.10;99.90
25112;DHT22;13092;51.996;4.458;2023-03-01T01:23:55;2.10;99.90
25112;DHT22;13092;51.996;4.458;2023-03-01T01:26:26;2.00;99.90
25112;DHT22;13092;51.996;4.458;2023-03-01T01:28:56;2.10;99.90
25112;DHT22;13092;51.996;4.458;2023-03-01T01:31:25;2.10;99.90
25112;DHT22;13092;51.996;4.458;2023-03-01T01:33:55;2.10;99.90
25112;DHT22;13092;51.996;4.458;2023-03-01T01:36:24;2.10;99.90
25112;DHT22;13092;51.996;4.458;2023-03-01T01:38:52;2.10;99.90
25112;DHT22;13092;51.996;4.458;2023-03-01T01:41:21;2.10;99.90
25112;DHT22;13092;51.996;4.458;2023-03-01T01:44:13;2.00;99.90
25112;DHT22;13092;51.996;4.458;2023-03-01T01:46:43;2.00;99.90
25112;DHT22;13092;51.996;4.458;2023-03-01T01:49:19;2.00;99.90
25112;DHT22;13092;51.996;4.458;2023-03-01T01:51:58;2.00;99.90
25112;DHT22;13092;51.996;4.458;2023-03-01T01:54:32;1.90;99.90
25112;DHT22;13092;51.996;4.458;2023-03-01T01:57:07;1.90;99.90
25112;DHT22;13092;51.996;4.458;2023-03-01T01:59:39;1.90;99.90
25112;DHT22;13092;51.996;4.458;2023-03-01T02:02:09;1.90;99.90
25112;DHT22;13092;51.996;4.458;2023-03-01T02:04:37;1.90;99.90
25112;DHT22;13092;51.996;4.458;2023-03-01T02:07:10;1.90;99.90
25112;DHT22;13092;51.996;4.458;2023-03-01T02:09:43;1.90;99.90
25112;DHT22;13092;51.996;4.458;2023-03-01T02:12:15;1.80;99.90
25112;DHT22;13092;51.996;4.458;2023-03-01T02:14:48;1.80;99.90
25112;DHT22;13092;51.996;4.458;2023-03-01T02:17:17;1.80;99.90
25112;DHT22;13092;51.996;4.458;2023-03-01T02:19:54;1.80;99.90
25112;DHT22;13092;51.996;4.458;2023-03-01T02:22:30;1.80;99.90
25112;DHT22;13092;51.996;4.458;2023-03-01T02:25:07;1.80;99.90
25112;DHT22;13092;51.996;4.458;2023-03-01T02:27:44;1.80;99.90
25112;DHT22;13092;51.996;4.458;2023-03-01T02:30:19;1.80;99.90
25112;DHT22;13092;51.996;4.458;2023-03-01T02:32:50;1.70;99.90
25112;DHT22;13092;51.996;4.458;2023-03-01T02:35:19;1.70;99.90
25112;DHT22;13092;51.996;4.458;2023-03-01T02:37:48;1.70;99.90
25112;DHT22;13092;51.996;4.458;2023-03-01T02:40:18;1.70;99.90
25112;DHT22;13092;51.996;4.458;2023-03-01T02:42:51;1.70;99.90
25112;DHT22;13092;51.996;4.458;2023-03-01T02:45:22;1.70;99.90
25112;DHT22;13092;51.996;4.458;2023-03-01T02:47:50;1.70;99.90
25112;DHT22;13092;51.996;4.458;2023-03-01T02:50:44;1.70;99.90
25112;DHT22;13092;51.996;4.458;2023-03-01T02:53:19;1.60;99.90
25112;DHT22;13092;51.996;4.458;2023-03-01T02:55:51;1.60;99.90
25112;DHT22;13092;51.996;4.458;2023-03-01T02:58:19;1.70;99.90
25112;DHT22;13092;51.996;4.458;2023-03-01T03:00:49;1.60;99.90
25112;DHT22;13092;51.996;4.458;2023-03-01T03:03:19;1.60;99.90
25112;DHT22;13092;51.996;4.458;2023-03-01T03:05:48;1.50;99.90
25112;DHT22;13092;51.996;4.458;2023-03-01T03:08:16;1.50;99.90
25112;DHT22;13092;51.996;4.458;2023-03-01T03:10:51;1.50;99.90
25112;DHT22;13092;51.996;4.458;2023-03-01T03:13:19;1.50;99.90
25112;DHT22;13092;51.996;4.458;2023-03-01T03:15:50;1.40;99.90
25112;DHT22;13092;51.996;4.458;2023-03-01T03:18:18;1.40;99.90
25112;DHT22;13092;51.996;4.458;2023-03-01T03:20:47;1.30;99.90
25112;DHT22;13092;51.996;4.458;2023-03-01T03:23:20;1.30;99.90
25112;DHT22;13092;51.996;4.458;2023-03-01T03:25:49;1.30;99.90
25112;DHT22;13092;51.996;4.458;2023-03-01T03:28:18;1.20;99.90
25112;DHT22;13092;51.996;4.458;2023-03-01T03:30:47;1.30;99.90
25112;DHT22;13092;51.996;4.458;2023-03-01T03:33:17;1.30;99.90
25112;DHT22;13092;51.996;4.458;2023-03-01T03:35:47;1.30;99.90
25112;DHT22;13092;51.996;4.458;2023-03-01T03:38:18;1.30;99.90
25112;DHT22;13092;51.996;4.458;2023-03-01T03:40:50;1.30;99.90
25112;DHT22;13092;51.996;4.458;2023-03-01T03:43:20;1.20;99.90
25112;DHT22;13092;51.996;4.458;2023-03-01T03:45:50;1.20;99.90
25112;DHT22;13092;51.996;4.458;2023-03-01T03:48:20;1.20;99.90
25112;DHT22;13092;51.996;4.458;2023-03-01T03:50:50;1.30;99.90
25112;DHT22;13092;51.996;4.458;2023-03-01T03:53:19;1.20;99.90
25112;DHT22;13092;51.996;4.458;2023-03-01T03:55:48;1.20;99.90
25112;DHT22;13092;51.996;4.458;2023-03-01T03:58:19;1.30;99.90
25112;DHT22;13092;51.996;4.458;2023-03-01T04:00:51;1.20;99.90
25112;DHT22;13092;51.996;4.458;2023-03-01T04:03:21;1.20;99.90
25112;DHT22;13092;51.996;4.458;2023-03-01T04:05:49;1.20;99.90
25112;DHT22;13092;51.996;4.458;2023-03-01T04:08:19;1.20;99.90
25112;DHT22;13092;51.996;4.458;2023-03-01T04:10:49;1.20;99.90
25112;DHT22;13092;51.996;4.458;2023-03-01T04:13:19;1.20;99.90
25112;DHT22;13092;51.996;4.458;2023-03-01T04:15:48;1.30;99.90
25112;DHT22;13092;51.996;4.458;2023-03-01T04:18:18;1.20;99.90
25112;DHT22;13092;51.996;4.458;2023-03-01T04:20:49;1.10;99.90
25112;DHT22;13092;51.996;4.458;2023-03-01T04:23:21;1.00;99.90
25112;DHT22;13092;51.996;4.458;2023-03-01T04:25:51;1.00;99.90
25112;DHT22;13092;51.996;4.458;2023-03-01T04:28:23;1.00;99.90
25112;DHT22;13092;51.996;4.458;2023-03-01T04:30:52;0.90;99.90
25112;DHT22;13092;51.996;4.458;2023-03-01T04:33:21;0.80;99.90
25112;DHT22;13092;51.996;4.458;2023-03-01T04:35:51;0.70;99.90
25112;DHT22;13092;51.996;4.458;2023-03-01T04:38:19;0.70;99.90
25112;DHT22;13092;51.996;4.458;2023-03-01T04:40:48;0.70;99.90
25112;DHT22;13092;51.996;4.458;2023-03-01T04:43:16;0.70;99.90
25112;DHT22;13092;51.996;4.458;2023-03-01T04:45:44;0.70;99.90
25112;DHT22;13092;51.996;4.458;2023-03-01T04:48:12;0.80;99.90
25112;DHT22;13092;51.996;4.458;2023-03-01T04:50:40;0.70;99.90
25112;DHT22;13092;51.996;4.458;2023-03-01T04:53:09;0.70;99.90
25112;DHT22;13092;51.996;4.458;2023-03-01T04:55:37;0.70;99.90
25112;DHT22;13092;51.996;4.458;2023-03-01T04:58:05;0.70;99.90
25112;DHT22;13092;51.996;4.458;2023-03-01T05:00:33;0.70;99.90
25112;DHT22;13092;51.996;4.458;2023-03-01T05:03:02;0.60;99.90
25112;DHT22;13092;51.996;4.458;2023-03-01T05:05:32;0.60;99.90
25112;DHT22;13092;51.996;4.458;2023-03-01T05:08:02;0.70;99.90
25112;DHT22;13092;51.996;4.458;2023-03-01T05:10:34;0.60;99.90
25112;DHT22;13092;51.996;4.458;2023-03-01T05:13:03;0.50;99.90
25112;DHT22;13092;51.996;4.458;2023-03-01T05:15:31;0.50;99.90
25112;DHT22;13092;51.996;4.458;2023-03-01T05:18:00;0.40;99.90
25112;DHT22;13092;51.996;4.458;2023-03-01T05:20:29;0.40;99.90
25112;DHT22;13092;51.996;4.458;2023-03-01T05:22:59;0.30;99.90
25112;DHT22;13092;51.996;4.458;2023-03-01T05:25:33;0.30;99.90
25112;DHT22;13092;51.996;4.458;2023-03-01T05:28:10;0.20;99.90
25112;DHT22;13092;51.996;4.458;2023-03-01T05:30:40;0.10;99.90
25112;DHT22;13092;51.996;4.458;2023-03-01T05:33:14;0.20;99.90
25112;DHT22;13092;51.996;4.458;2023-03-01T05:35:44;0.20;99.90
25112;DHT22;13092;51.996;4.458;2023-03-01T05:38:16;0.20;99.90
25112;DHT22;13092;51.996;4.458;2023-03-01T05:40:47;0.30;99.90
25112;DHT22;13092;51.996;4.458;2023-03-01T05:43:16;0.30;99.90
25112;DHT22;13092;51.996;4.458;2023-03-01T05:45:45;0.30;99.90
25112;DHT22;13092;51.996;4.458;2023-03-01T05:48:13;0.30;99.90
25112;DHT22;13092;51.996;4.458;2023-03-01T05:50:44;0.20;99.90
25112;DHT22;13092;51.996;4.458;2023-03-01T05:53:13;0.20;99.90
25112;DHT22;13092;51.996;4.458;2023-03-01T05:55:42;0.10;99.90
25112;DHT22;13092;51.996;4.458;2023-03-01T05:58:13;0.10;99.90
25112;DHT22;13092;51.996;4.458;2023-03-01T06:00:42;0.10;99.90
25112;DHT22;13092;51.996;4.458;2023-03-01T06:03:12;0.10;99.90
25112;DHT22;13092;51.996;4.458;2023-03-01T06:05:41;0.10;99.90
25112;DHT22;13092;51.996;4.458;2023-03-01T06:08:10;0.20;99.90
25112;DHT22;13092;51.996;4.458;2023-03-01T06:10:39;0.20;99.90
25112;DHT22;13092;51.996;4.458;2023-03-01T06:13:07;0.20;99.90
25112;DHT22;13092;51.996;4.458;2023-03-01T06:15:37;0.20;99.90
25112;DHT22;13092;51.996;4.458;2023-03-01T06:18:05;0.40;99.90
25112;DHT22;13092;51.996;4.458;2023-03-01T06:20:33;0.30;99.90
25112;DHT22;13092;51.996;4.458;2023-03-01T06:23:02;0.30;99.90
25112;DHT22;13092;51.996;4.458;2023-03-01T06:25:31;0.30;99.90
25112;DHT22;13092;51.996;4.458;2023-03-01T06:27:59;0.30;99.90
25112;DHT22;13092;51.996;4.458;2023-03-01T06:30:27;0.30;99.90
25112;DHT22;13092;51.996;4.458;2023-03-01T06:32:57;0.30;99.90
25112;DHT22;13092;51.996;4.458;2023-03-01T06:35:30;0.30;99.90
25112;DHT22;13092;51.996;4.458;2023-03-01T06:37:59;0.30;99.90
25112;DHT22;13092;51.996;4.458;2023-03-01T06:40:28;0.30;99.90
25112;DHT22;13092;51.996;4.458;2023-03-01T06:42:58;0.30;99.90
25112;DHT22;13092;51.996;4.458;2023-03-01T06:45:27;0.30;99.90
25112;DHT22;13092;51.996;4.458;2023-03-01T06:48:07;0.30;99.90
25112;DHT22;13092;51.996;4.458;2023-03-01T06:50:35;0.30;99.90
25112;DHT22;13092;51.996;4.458;2023-03-01T06:53:05;0.20;99.90
25112;DHT22;13092;51.996;4.458;2023-03-01T06:55:33;0.20;99.90
25112;DHT22;13092;51.996;4.458;2023-03-01T06:58:02;0.20;99.90
25112;DHT22;13092;51.996;4.458;2023-03-01T07:00:31;0.20;99.90
25112;DHT22;13092;51.996;4.458;2023-03-01T07:03:00;0.20;99.90
25112;DHT22;13092;51.996;4.458;2023-03-01T07:05:33;0.20;99.90
25112;DHT22;13092;51.996;4.458;2023-03-01T07:08:01;0.10;99.90
25112;DHT22;13092;51.996;4.458;2023-03-01T07:10:29;0.20;99.90
25112;DHT22;13092;51.996;4.458;2023-03-01T07:12:57;0.30;99.90
25112;DHT22;13092;51.996;4.458;2023-03-01T07:15:26;0.30;99.90
25112;DHT22;13092;51.996;4.458;2023-03-01T07:17:56;0.30;99.90
25112;DHT22;13092;51.996;4.458;2023-03-01T07:20:25;0.30;99.90
25112;DHT22;13092;51.996;4.458;2023-03-01T07:22:55;0.40;99.90
25112;DHT22;13092;51.996;4.458;2023-03-01T07:25:25;0.40;99.90
25112;DHT22;13092;51.996;4.458;2023-03-01T07:27:53;0.40;99.90
25112;DHT22;13092;51.996;4.458;2023-03-01T07:30:21;0.40;99.90
25112;DHT22;13092;51.996;4.458;2023-03-01T07:32:53;0.50;99.90
25112;DHT22;13092;51.996;4.458;2023-03-01T07:35:22;0.50;99.90
25112;DHT22;13092;51.996;4.458;2023-03-01T07:37:50;0.60;99.90
25112;DHT22;13092;51.996;4.458;2023-03-01T07:40:20;0.60;99.90
25112;DHT22;13092;51.996;4.458;2023-03-01T07:42:48;0.60;99.90
25112;DHT22;13092;51.996;4.458;2023-03-01T07:45:16;0.70;99.90
25112;DHT22;13092;51.996;4.458;2023-03-01T07:47:44;0.70;99.90
25112;DHT22;13092;51.996;4.458;2023-03-01T07:50:12;0.80;99.90
25112;DHT22;13092;51.996;4.458;2023-03-01T07:52:40;0.80;99.90
25112;DHT22;13092;51.996;4.458;2023-03-01T07:55:08;0.90;99.90
25112;DHT22;13092;51.996;4.458;2023-03-01T07:57:39;1.00;99.90
25112;DHT22;13092;51.996;4.458;2023-03-01T08:00:09;1.00;99.90
25112;DHT22;13092;51.996;4.458;2023-03-01T08:02:38;1.00;99.90
25112;DHT22;13092;51.996;4.458;2023-03-01T08:05:09;1.10;99.90
25112;DHT22;13092;51.996;4.458;2023-03-01T08:07:37;1.10;99.90
25112;DHT22;13092;51.996;4.458;2023-03-01T08:10:06;1.00;99.90
25112;DHT22;13092;51.996;4.458;2023-03-01T08:12:34;1.20;99.90
25112;DHT22;13092;51.996;4.458;2023-03-01T08:15:05;1.30;99.90
25112;DHT22;13092;51.996;4.458;2023-03-01T08:17:33;1.30;99.90
25112;DHT22;13092;51.996;4.458;2023-03-01T08:20:02;1.40;99.90
25112;DHT22;13092;51.996;4.458;2023-03-01T08:22:33;1.50;99.90
25112;DHT22;13092;51.996;4.458;2023-03-01T08:25:01;1.60;99.90
25112;DHT22;13092;51.996;4.458;2023-03-01T08:27:29;1.60;99.90
25112;DHT22;13092;51.996;4.458;2023-03-01T08:29:57;1.70;99.90
25112;DHT22;13092;51.996;4.458;2023-03-01T08:32:27;1.70;99.90
25112;DHT22;13092;51.996;4.458;2023-03-01T08:34:55;1.80;99.90
25112;DHT22;13092;51.996;4.458;2023-03-01T08:37:23;1.90;99.90
25112;DHT22;13092;51.996;4.458;2023-03-01T08:39:51;2.00;99.90
25112;DHT22;13092;51.996;4.458;2023-03-01T08:42:19;2.00;99.90
25112;DHT22;13092;51.996;4.458;2023-03-01T08:44:47;2.10;99.90
25112;DHT22;13092;51.996;4.458;2023-03-01T08:47:16;2.20;99.90
25112;DHT22;13092;51.996;4.458;2023-03-01T08:49:45;2.20;99.90
25112;DHT22;13092;51.996;4.458;2023-03-01T08:52:13;2.30;99.90
25112;DHT22;13092;51.996;4.458;2023-03-01T08:54:41;2.40;99.90
25112;DHT22;13092;51.996;4.458;2023-03-01T08:57:10;2.40;99.90
25112;DHT22;13092;51.996;4.458;2023-03-01T08:59:39;2.50;99.90
25112;DHT22;13092;51.996;4.458;2023-03-01T09:02:12;2.60;99.90
25112;DHT22;13092;51.996;4.458;2023-03-01T09:04:41;2.70;99.90
25112;DHT22;13092;51.996;4.458;2023-03-01T09:07:11;2.80;99.90
25112;DHT22;13092;51.996;4.458;2023-03-01T09:09:39;2.90;99.90
25112;DHT22;13092;51.996;4.458;2023-03-01T09:12:07;3.00;99.90
25112;DHT22;13092;51.996;4.458;2023-03-01T09:14:36;3.10;99.90
25112;DHT22;13092;51.996;4.458;2023-03-01T09:17:05;3.20;99.90
25112;DHT22;13092;51.996;4.458;2023-03-01T09:19:33;3.20;99.90
25112;DHT22;13092;51.996;4.458;2023-03-01T09:22:03;3.30;99.90
25112;DHT22;13092;51.996;4.458;2023-03-01T09:24:33;3.40;99.90
25112;DHT22;13092;51.996;4.458;2023-03-01T09:27:01;3.40;99.90
25112;DHT22;13092;51.996;4.458;2023-03-01T09:29:29;3.50;99.90
25112;DHT22;13092;51.996;4.458;2023-03-01T09:31:58;3.50;99.90
25112;DHT22;13092;51.996;4.458;2023-03-01T09:34:26;3.60;99.90
25112;DHT22;13092;51.996;4.458;2023-03-01T09:36:54;3.60;99.90
25112;DHT22;13092;51.996;4.458;2023-03-01T09:39:22;3.70;99.90
25112;DHT22;13092;51.996;4.458;2023-03-01T09:41:57;3.70;99.90
25112;DHT22;13092;51.996;4.458;2023-03-01T09:44:32;3.80;99.90
25112;DHT22;13092;51.996;4.458;2023-03-01T09:47:03;3.80;99.90
25112;DHT22;13092;51.996;4.458;2023-03-01T09:49:33;3.90;99.90
25112;DHT22;13092;51.996;4.458;2023-03-01T09:52:09;4.10;99.90
25112;DHT22;13092;51.996;4.458;2023-03-01T09:54:40;4.10;99.90
25112;DHT22;13092;51.996;4.458;2023-03-01T09:57:24;4.20;99.90
25112;DHT22;13092;51.996;4.458;2023-03-01T10:00:07;4.30;99.90
25112;DHT22;13092;51.996;4.458;2023-03-01T10:02:41;4.40;99.90
25112;DHT22;13092;51.996;4.458;2023-03-01T10:05:22;4.40;99.90
25112;DHT22;13092;51.996;4.458;2023-03-01T10:08:06;4.50;99.90
25112;DHT22;13092;51.996;4.458;2023-03-01T10:10:44;4.60;99.90
25112;DHT22;13092;51.996;4.458;2023-03-01T10:13:20;4.60;99.90
25112;DHT22;13092;51.996;4.458;2023-03-01T10:15:51;4.60;99.90
25112;DHT22;13092;51.996;4.458;2023-03-01T10:18:24;4.70;99.90
25112;DHT22;13092;51.996;4.458;2023-03-01T10:20:56;4.80;99.90
25112;DHT22;13092;51.996;4.458;2023-03-01T10:23:25;4.80;99.90
25112;DHT22;13092;51.996;4.458;2023-03-01T10:26:12;4.90;99.90
25112;DHT22;13092;51.996;4.458;2023-03-01T10:28:53;4.90;99.90
25112;DHT22;13092;51.996;4.458;2023-03-01T10:31:27;5.00;99.90
25112;DHT22;13092;51.996;4.458;2023-03-01T10:34:09;5.00;99.90
25112;DHT22;13092;51.996;4.458;2023-03-01T10:36:38;5.10;99.90
25112;DHT22;13092;51.996;4.458;2023-03-01T10:39:15;5.10;99.90
25112;DHT22;13092;51.996;4.458;2023-03-01T10:41:55;5.30;99.90
25112;DHT22;13092;51.996;4.458;2023-03-01T10:44:43;5.20;99.90
25112;DHT22;13092;51.996;4.458;2023-03-01T10:47:17;5.30;99.90
25112;DHT22;13092;51.996;4.458;2023-03-01T10:50:05;5.40;99.90
25112;DHT22;13092;51.996;4.458;2023-03-01T10:52:35;5.50;99.90
25112;DHT22;13092;51.996;4.458;2023-03-01T10:55:24;5.50;99.90
25112;DHT22;13092;51.996;4.458;2023-03-01T10:58:07;5.50;99.90
25112;DHT22;13092;51.996;4.458;2023-03-01T11:00:47;5.60;99.90
25112;DHT22;13092;51.996;4.458;2023-03-01T11:03:18;5.70;99.90
25112;DHT22;13092;51.996;4.458;2023-03-01T11:05:54;5.80;99.90
25112;DHT22;13092;51.996;4.458;2023-03-01T11:08:38;5.90;99.90
25112;DHT22;13092;51.996;4.458;2023-03-01T11:14:03;6.00;99.90
25112;DHT22;13092;51.996;4.458;2023-03-01T11:17:00;6.00;99.90
25112;DHT22;13092;51.996;4.458;2023-03-01T11:19:29;6.10;99.90
25112;DHT22;13092;51.996;4.458;2023-03-01T11:22:02;6.20;99.90
25112;DHT22;13092;51.996;4.458;2023-03-01T11:24:49;6.30;99.90
25112;DHT22;13092;51.996;4.458;2023-03-01T11:27:39;6.40;99.90
25112;DHT22;13092;51.996;4.458;2023-03-01T11:30:18;6.60;99.90
25112;DHT22;13092;51.996;4.458;2023-03-01T11:32:54;6.30;99.90
25112;DHT22;13092;51.996;4.458;2023-03-01T11:35:26;6.30;99.90
25112;DHT22;13092;51.996;4.458;2023-03-01T11:38:03;6.30;99.90
25112;DHT22;13092;51.996;4.458;2023-03-01T11:40:35;6.40;99.90
25112;DHT22;13092;51.996;4.458;2023-03-01T11:43:12;6.50;99.90
25112;DHT22;13092;51.996;4.458;2023-03-01T11:45:51;6.50;99.90
25112;DHT22;13092;51.996;4.458;2023-03-01T11:48:43;6.40;99.90
25112;DHT22;13092;51.996;4.458;2023-03-01T11:51:23;6.60;99.90
25112;DHT22;13092;51.996;4.458;2023-03-01T11:54:18;6.70;99.90
25112;DHT22;13092;51.996;4.458;2023-03-01T11:56:55;6.80;99.90
25112;DHT22;13092;51.996;4.458;2023-03-01T12:08:36;6.90;99.90
25112;DHT22;13092;51.996;4.458;2023-03-01T12:11:17;7.00;99.90
25112;DHT22;13092;51.996;4.458;2023-03-01T12:14:05;7.00;99.90
25112;DHT22;13092;51.996;4.458;2023-03-01T12:17:07;7.10;99.90
25112;DHT22;13092;51.996;4.458;2023-03-01T12:19:52;7.00;99.90
25112;DHT22;13092;51.996;4.458;2023-03-01T12:22:30;7.10;99.90
25112;DHT22;13092;51.996;4.458;2023-03-01T12:25:11;7.00;99.90
25112;DHT22;13092;51.996;4.458;2023-03-01T12:28:02;7.30;99.90
25112;DHT22;13092;51.996;4.458;2023-03-01T12:30:42;7.20;99.90
25112;DHT22;13092;51.996;4.458;2023-03-01T12:33:24;7.20;99.90
25112;DHT22;13092;51.996;4.458;2023-03-01T12:39:03;7.20;99.90
25112;DHT22;13092;51.996;4.458;2023-03-01T12:41:47;7.20;99.90
25112;DHT22;13092;51.996;4.458;2023-03-01T12:44:39;7.30;99.90
25112;DHT22;13092;51.996;4.458;2023-03-01T12:47:22;7.50;99.90
25112;DHT22;13092;51.996;4.458;2023-03-01T12:49:55;7.50;99.90
25112;DHT22;13092;51.996;4.458;2023-03-01T12:52:37;7.40;99.90
25112;DHT22;13092;51.996;4.458;2023-03-01T12:55:15;7.40;99.90
25112;DHT22;13092;51.996;4.458;2023-03-01T12:57:51;7.40;99.90
25112;DHT22;13092;51.996;4.458;2023-03-01T13:00:30;7.40;99.90
25112;DHT22;13092;51.996;4.458;2023-03-01T13:03:09;7.50;99.90
25112;DHT22;13092;51.996;4.458;2023-03-01T13:05:45;7.50;99.90
25112;DHT22;13092;51.996;4.458;2023-03-01T13:08:22;7.50;99.90
25112;DHT22;13092;51.996;4.458;2023-03-01T13:10:57;7.70;99.90
25112;DHT22;13092;51.996;4.458;2023-03-01T13:13:29;7.70;99.90
25112;DHT22;13092;51.996;4.458;2023-03-01T13:16:21;7.70;99.90
25112;DHT22;13092;51.996;4.458;2023-03-01T13:19:06;7.70;99.90
25112;DHT22;13092;51.996;4.458;2023-03-01T13:21:35;7.70;99.90
25112;DHT22;13092;51.996;4.458;2023-03-01T13:24:03;7.70;99.90
25112;DHT22;13092;51.996;4.458;2023-03-01T13:27:10;7.60;99.90
25112;DHT22;13092;51.996;4.458;2023-03-01T13:29:46;7.60;99.90
25112;DHT22;13092;51.996;4.458;2023-03-01T13:32:23;7.60;99.90
25112;DHT22;13092;51.996;4.458;2023-03-01T13:35:43;7.70;99.90
25112;DHT22;13092;51.996;4.458;2023-03-01T13:38:37;7.70;99.90
25112;DHT22;13092;51.996;4.458;2023-03-01T13:41:06;7.70;99.90
25112;DHT22;13092;51.996;4.458;2023-03-01T13:43:38;7.70;99.90
25112;DHT22;13092;51.996;4.458;2023-03-01T13:46:11;7.70;99.90
25112;DHT22;13092;51.996;4.458;2023-03-01T13:48:40;7.60;99.90
25112;DHT22;13092;51.996;4.458;2023-03-01T13:51:11;7.70;99.90
25112;DHT22;13092;51.996;4.458;2023-03-01T13:53:45;8.00;99.90
25112;DHT22;13092;51.996;4.458;2023-03-01T13:56:17;7.80;99.90
25112;DHT22;13092;51.996;4.458;2023-03-01T13:58:53;7.90;99.90
25112;DHT22;13092;51.996;4.458;2023-03-01T14:01:28;7.90;99.90
25112;DHT22;13092;51.996;4.458;2023-03-01T14:03:57;8.00;99.90
25112;DHT22;13092;51.996;4.458;2023-03-01T14:06:27;8.00;99.90
25112;DHT22;13092;51.996;4.458;2023-03-01T14:09:08;8.10;99.90
25112;DHT22;13092;51.996;4.458;2023-03-01T14:12:12;8.30;99.90
25112;DHT22;13092;51.996;4.458;2023-03-01T14:15:01;8.20;99.90
25112;DHT22;13092;51.996;4.458;2023-03-01T14:17:43;8.10;99.90
25112;DHT22;13092;51.996;4.458;2023-03-01T14:20:18;8.10;99.90
25112;DHT22;13092;51.996;4.458;2023-03-01T14:22:47;8.10;99.90
25112;DHT22;13092;51.996;4.458;2023-03-01T14:25:21;8.30;99.90
25112;DHT22;13092;51.996;4.458;2023-03-01T14:27:59;8.10;99.90
25112;DHT22;13092;51.996;4.458;2023-03-01T14:30:36;8.20;99.90
25112;DHT22;13092;51.996;4.458;2023-03-01T14:33:17;8.10;99.90
25112;DHT22;13092;51.996;4.458;2023-03-01T14:35:54;8.10;99.90
25112;DHT22;13092;51.996;4.458;2023-03-01T14:38:31;8.10;99.90
25112;DHT22;13092;51.996;4.458;2023-03-01T14:41:03;8.00;99.90
25112;DHT22;13092;51.996;4.458;2023-03-01T14:43:33;8.00;99.90
25112;DHT22;13092;51.996;4.458;2023-03-01T14:46:04;8.10;99.90
25112;DHT22;13092;51.996;4.458;2023-03-01T14:48:32;8.00;99.90
25112;DHT22;13092;51.996;4.458;2023-03-01T14:51:00;8.00;99.90
25112;DHT22;13092;51.996;4.458;2023-03-01T14:53:29;8.10;99.90
25112;DHT22;13092;51.996;4.458;2023-03-01T14:56:15;8.00;99.90
25112;DHT22;13092;51.996;4.458;2023-03-01T14:58:44;8.00;99.90
25112;DHT22;13092;51.996;4.458;2023-03-01T15:01:17;8.20;99.90
25112;DHT22;13092;51.996;4.458;2023-03-01T15:03:47;8.20;99.90
25112;DHT22;13092;51.996;4.458;2023-03-01T15:06:18;8.10;99.90
25112;DHT22;13092;51.996;4.458;2023-03-01T15:08:49;8.10;99.90
25112;DHT22;13092;51.996;4.458;2023-03-01T15:11:20;8.20;99.90
25112;DHT22;13092;51.996;4.458;2023-03-01T15:13:52;8.20;99.90
25112;DHT22;13092;51.996;4.458;2023-03-01T15:16:23;8.30;99.90
25112;DHT22;13092;51.996;4.458;2023-03-01T15:18:54;8.30;99.90
25112;DHT22;13092;51.996;4.458;2023-03-01T15:21:25;8.30;99.90
25112;DHT22;13092;51.996;4.458;2023-03-01T15:23:55;8.30;99.90
25112;DHT22;13092;51.996;4.458;2023-03-01T15:26:26;8.30;99.90
25112;DHT22;13092;51.996;4.458;2023-03-01T15:28:58;8.40;99.90
25112;DHT22;13092;51.996;4.458;2023-03-01T15:31:30;8.40;99.90
25112;DHT22;13092;51.996;4.458;2023-03-01T15:34:21;8.40;99.90
25112;DHT22;13092;51.996;4.458;2023-03-01T15:36:52;8.40;99.90
25112;DHT22;13092;51.996;4.458;2023-03-01T15:39:38;8.50;99.90
25112;DHT22;13092;51.996;4.458;2023-03-01T15:42:10;8.50;99.90
25112;DHT22;13092;51.996;4.458;2023-03-01T15:44:39;8.40;99.90
25112;DHT22;13092;51.996;4.458;2023-03-01T15:47:25;8.50;99.90
25112;DHT22;13092;51.996;4.458;2023-03-01T15:49:54;8.50;99.90
25112;DHT22;13092;51.996;4.458;2023-03-01T15:52:25;8.50;99.90
25112;DHT22;13092;51.996;4.458;2023-03-01T15:54:57;8.60;99.90
25112;DHT22;13092;51.996;4.458;2023-03-01T15:57:27;8.40;99.90
25112;DHT22;13092;51.996;4.458;2023-03-01T15:59:55;8.30;99.90
25112;DHT22;13092;51.996;4.458;2023-03-01T16:02:27;8.20;99.90
25112;DHT22;13092;51.996;4.458;2023-03-01T16:04:57;8.20;99.90
25112;DHT22;13092;51.996;4.458;2023-03-01T16:07:28;8.20;99.90
25112;DHT22;13092;51.996;4.458;2023-03-01T16:09:57;8.20;99.90
25112;DHT22;13092;51.996;4.458;2023-03-01T16:12:26;8.10;99.90
25112;DHT22;13092;51.996;4.458;2023-03-01T16:14:54;8.10;99.90
25112;DHT22;13092;51.996;4.458;2023-03-01T16:17:25;7.90;99.90
25112;DHT22;13092;51.996;4.458;2023-03-01T16:19:54;7.80;99.90
25112;DHT22;13092;51.996;4.458;2023-03-01T16:22:41;8.10;99.90
25112;DHT22;13092;51.996;4.458;2023-03-01T16:25:34;7.80;99.90
25112;DHT22;13092;51.996;4.458;2023-03-01T16:46:52;7.50;99.90
25112;DHT22;13092;51.996;4.458;2023-03-01T16:49:20;7.50;99.90
25112;DHT22;13092;51.996;4.458;2023-03-01T16:51:48;7.50;99.90
25112;DHT22;13092;51.996;4.458;2023-03-01T16:54:16;7.50;99.90